createdAt,value
2023-01-03T00:01:52.117Z,8
2023-01-03T00:03:50.303Z,8
2023-01-03T00:07:52.925Z,7.9
2023-01-03T00:09:51.584Z,7.9
2023-01-03T00:13:51.117Z,7.9
2023-01-03T00:15:50.211Z,7.9
2023-01-03T00:17:53.537Z,7.8
2023-01-03T00:19:53.529Z,7.8
2023-01-03T00:21:51.482Z,7.8
2023-01-03T00:23:53.149Z,7.8
2023-01-03T00:25:53.282Z,7.7
2023-01-03T00:27:48.864Z,7.6
2023-01-03T00:29:53.869Z,7.6
2023-01-03T00:31:51.437Z,7.7
2023-01-03T00:33:50.561Z,7.6
2023-01-03T00:35:53.224Z,7.6
2023-01-03T00:37:53.056Z,7.6
2023-01-03T00:39:52.129Z,7.5
2023-01-03T00:43:53.425Z,7.5
2023-01-03T00:45:49.212Z,7.5
2023-01-03T00:49:52.580Z,7.6
2023-01-03T00:51:50.240Z,7.6
2023-01-03T00:53:53.641Z,7.5
2023-01-03T00:55:52.277Z,7.5
2023-01-03T00:57:49.174Z,7.4
2023-01-03T01:01:48.970Z,7.5
2023-01-03T01:03:48.900Z,7.5
2023-01-03T01:07:50.996Z,7.4
2023-01-03T01:09:51.639Z,7.5
2023-01-03T01:11:53.350Z,7.5
2023-01-03T01:13:52.942Z,7.5
2023-01-03T01:15:50.230Z,7.5
2023-01-03T01:19:51.631Z,7.4
2023-01-03T01:25:51.637Z,7.4
2023-01-03T01:27:50.410Z,7.4
2023-01-03T01:31:52.192Z,7.4
2023-01-03T01:33:52.801Z,7.4
2023-01-03T01:35:53.747Z,7.4
2023-01-03T01:37:52.150Z,7.4
2023-01-03T01:39:53.439Z,7.4
2023-01-03T01:43:48.869Z,7.4
2023-01-03T01:45:51.561Z,7.3
2023-01-03T01:47:53.573Z,7.4
2023-01-03T01:49:51.536Z,7.4
2023-01-03T01:51:50.817Z,7.4
2023-01-03T01:53:53.610Z,7.3
2023-01-03T01:55:49.206Z,7.3
2023-01-03T01:59:53.676Z,7.2
2023-01-03T02:01:53.826Z,7.2
2023-01-03T02:03:48.879Z,7.2
2023-01-03T02:07:50.336Z,7.2
2023-01-03T02:09:53.450Z,7.2
2023-01-03T02:11:53.657Z,7.2
2023-01-03T02:13:52.441Z,7.2
2023-01-03T02:15:50.334Z,7.2
2023-01-03T02:17:53.643Z,7.1
2023-01-03T02:19:50.246Z,7
2023-01-03T02:21:53.553Z,7
2023-01-03T02:23:54.261Z,7.1
2023-01-03T02:25:50.791Z,7
2023-01-03T02:27:52.489Z,6.9
2023-01-03T02:31:50.313Z,7
2023-01-03T02:33:48.875Z,6.9
2023-01-03T02:37:48.805Z,7
2023-01-03T02:39:55.039Z,7
2023-01-03T02:41:53.775Z,7
2023-01-03T02:43:53.036Z,7
2023-01-03T02:45:50.247Z,7
2023-01-03T02:49:53.029Z,7
2023-01-03T02:51:51.706Z,7
2023-01-03T02:53:50.971Z,7
2023-01-03T02:55:51.031Z,6.9
2023-01-03T02:57:51.185Z,6.9
2023-01-03T02:59:53.858Z,7
2023-01-03T03:01:52.996Z,7
2023-01-03T03:03:52.438Z,7
2023-01-03T03:05:52.465Z,7
2023-01-03T03:07:52.960Z,6.9
2023-01-03T03:09:48.848Z,7
2023-01-03T03:11:53.639Z,7
2023-01-03T03:13:52.465Z,7
2023-01-03T03:15:48.870Z,6.9
2023-01-03T03:17:53.667Z,7
2023-01-03T03:19:51.501Z,6.9
2023-01-03T03:21:52.411Z,6.9
2023-01-03T03:23:53.657Z,6.7
2023-01-03T03:25:52.714Z,6.7
2023-01-03T03:27:52.881Z,6.7
2023-01-03T03:29:53.685Z,6.7
2023-01-03T03:31:50.680Z,6.6
2023-01-03T03:33:52.620Z,6.6
2023-01-03T03:35:53.750Z,6.6
2023-01-03T03:37:53.337Z,6.6
2023-01-03T03:39:53.606Z,6.6
2023-01-03T03:41:53.406Z,6.6
2023-01-03T03:43:53.456Z,6.6
2023-01-03T03:45:50.387Z,6.7
2023-01-03T03:47:53.701Z,6.7
2023-01-03T03:49:51.977Z,6.7
2023-01-03T03:51:52.983Z,6.7
2023-01-03T03:53:53.906Z,6.6
2023-01-03T03:55:48.836Z,6.6
2023-01-03T03:57:51.148Z,6.7
2023-01-03T04:01:53.314Z,6.7
2023-01-03T04:03:48.957Z,6.7
2023-01-03T04:07:50.583Z,6.7
2023-01-03T04:09:51.653Z,6.7
2023-01-03T04:13:49.240Z,6.7
2023-01-03T04:15:51.692Z,6.7
2023-01-03T04:17:53.055Z,6.8
2023-01-03T04:19:52.683Z,6.7
2023-01-03T04:21:49.302Z,6.8
2023-01-03T04:23:53.822Z,6.8
2023-01-03T04:25:50.809Z,6.8
2023-01-03T04:27:49.238Z,6.7
2023-01-03T04:29:53.644Z,6.8
2023-01-03T04:31:49.025Z,6.8
2023-01-03T04:33:50.489Z,6.8
2023-01-03T04:39:51.342Z,6.8
2023-01-03T04:41:53.705Z,6.7
2023-01-03T04:43:52.463Z,6.7
2023-01-03T04:45:52.703Z,6.7
2023-01-03T04:47:53.894Z,6.7
2023-01-03T04:49:48.501Z,6.7
2023-01-03T04:51:52.205Z,6.8
2023-01-03T04:55:51.783Z,6.8
2023-01-03T04:57:50.297Z,6.8
2023-01-03T04:59:54.082Z,6.7
2023-01-03T05:01:51.348Z,6.7
2023-01-03T05:03:52.933Z,6.6
2023-01-03T05:07:50.795Z,6.6
2023-01-03T05:09:52.590Z,6.6
2023-01-03T05:13:49.289Z,6.5
2023-01-03T05:15:52.647Z,6.6
2023-01-03T05:19:53.442Z,6.7
2023-01-03T05:21:51.196Z,6.7
2023-01-03T05:23:53.080Z,6.6
2023-01-03T05:25:51.105Z,6.6
2023-01-03T05:27:49.313Z,6.6
2023-01-03T05:31:52.965Z,6.6
2023-01-03T05:33:52.122Z,6.5
2023-01-03T05:35:53.731Z,6.5
2023-01-03T05:37:49.302Z,6.6
2023-01-03T05:39:49.285Z,6.6
2023-01-03T05:44:05.188Z,6.6
2023-01-03T05:46:08.510Z,6.5
2023-01-03T05:48:09.360Z,6.6
2023-01-03T05:50:06.864Z,6.6
2023-01-03T05:52:06.059Z,6.5
2023-01-03T05:54:09.097Z,6.5
2023-01-03T05:56:07.575Z,6.4
2023-01-03T05:58:05.740Z,6.4
2023-01-03T06:02:07.742Z,6.4
2023-01-03T06:04:05.936Z,6.4
2023-01-03T06:08:08.835Z,6.4
2023-01-03T06:10:08.584Z,6.2
2023-01-03T06:12:09.165Z,6.3
2023-01-03T06:14:08.491Z,6.4
2023-01-03T06:16:05.711Z,6.4
2023-01-03T06:18:08.996Z,6.5
2023-01-03T06:20:05.846Z,6.5
2023-01-03T06:22:10.681Z,6.4
2023-01-03T06:24:09.314Z,6.3
2023-01-03T06:26:07.990Z,6.4
2023-01-03T06:28:08.010Z,6.5
2023-01-03T06:32:09.348Z,6.3
2023-01-03T06:34:07.490Z,6.4
2023-01-03T06:36:09.346Z,6.5
2023-01-03T06:38:06.539Z,6.4
2023-01-03T06:40:06.622Z,6.1
2023-01-03T06:44:07.163Z,6.3
2023-01-03T06:46:07.173Z,6.3
2023-01-03T06:48:09.087Z,6.3
2023-01-03T06:52:06.140Z,6.2
2023-01-03T06:54:08.964Z,6.3
2023-01-03T06:56:06.732Z,6.3
2023-01-03T06:58:05.793Z,6.3
2023-01-03T07:00:08.516Z,6.2
2023-01-03T07:02:04.601Z,6.3
2023-01-03T07:04:06.172Z,6.3
2023-01-03T07:06:09.557Z,6.2
2023-01-03T07:08:04.854Z,6.2
2023-01-03T07:10:08.793Z,6.2
2023-01-03T07:14:08.076Z,6.2
2023-01-03T07:16:05.462Z,6.2
2023-01-03T07:20:04.110Z,6.1
2023-01-03T07:22:08.078Z,6.2
2023-01-03T07:24:08.204Z,6.3
2023-01-03T07:26:02.633Z,6.2
2023-01-03T07:28:06.497Z,6.3
2023-01-03T07:32:03.099Z,6.2
2023-01-03T07:34:04.911Z,6.2
2023-01-03T07:38:08.494Z,6.2
2023-01-03T07:40:07.751Z,6.1
2023-01-03T07:42:08.174Z,6.1
2023-01-03T07:44:06.326Z,6.1
2023-01-03T07:46:08.095Z,6.1
2023-01-03T07:50:04.480Z,6.2
2023-01-03T07:52:09.025Z,6.4
2023-01-03T07:56:12.804Z,6.3
2023-01-03T07:58:09.056Z,6.3
2023-01-03T08:00:09.250Z,6.2
2023-01-03T08:02:02.746Z,6.3
2023-01-03T08:04:05.848Z,6.3
2023-01-03T08:08:06.348Z,6.3
2023-01-03T08:10:06.576Z,6.4
2023-01-03T08:14:04.682Z,6.3
2023-01-03T08:16:07.193Z,6.3
2023-01-03T08:20:02.664Z,6.3
2023-01-03T08:22:08.816Z,6.3
2023-01-03T08:26:07.019Z,6.4
2023-01-03T08:28:05.791Z,6.3
2023-01-03T08:32:04.257Z,6.4
2023-01-03T08:34:07.566Z,6.3
2023-01-03T08:38:02.967Z,6.5
2023-01-03T08:40:06.738Z,6.5
2023-01-03T08:44:05.820Z,6.5
2023-01-03T08:46:08.541Z,6.6
2023-01-03T08:48:09.147Z,6.5
2023-01-03T08:50:06.235Z,6.6
2023-01-03T08:52:08.626Z,6.7
2023-01-03T08:54:09.061Z,6.7
2023-01-03T08:56:05.396Z,6.7
2023-01-03T08:58:02.616Z,6.8
2023-01-03T09:02:02.939Z,6.9
2023-01-03T09:04:09.710Z,7
2023-01-03T09:06:09.447Z,7
2023-01-03T09:08:02.619Z,7.1
2023-01-03T09:10:05.434Z,7.2
2023-01-03T09:12:09.152Z,7.3
2023-01-03T09:14:05.120Z,7.2
2023-01-03T09:16:02.669Z,7.3
2023-01-03T09:20:07.147Z,7.3
2023-01-03T09:22:07.091Z,7.2
2023-01-03T09:26:02.611Z,7.3
2023-01-03T09:28:04.005Z,7.3
2023-01-03T09:30:09.270Z,7.4
2023-01-03T09:32:02.650Z,7.5
2023-01-03T09:34:05.290Z,7.6
2023-01-03T09:38:08.381Z,7.6
2023-01-03T09:40:02.626Z,7.7
2023-01-03T09:42:08.435Z,7.6
2023-01-03T09:44:04.361Z,7.6
2023-01-03T09:46:02.639Z,7.6
2023-01-03T09:48:09.127Z,7.7
2023-01-03T09:50:31.663Z,7.8
2023-01-03T09:52:04.407Z,8
2023-01-03T09:56:04.651Z,8.2
2023-01-03T09:58:04.575Z,8.3
2023-01-03T10:02:06.225Z,8.2
2023-01-03T10:04:06.673Z,8.1
2023-01-03T10:06:09.225Z,8
2023-01-03T10:08:06.390Z,7.9
2023-01-03T10:10:06.760Z,7.9
2023-01-03T10:14:05.757Z,7.9
2023-01-03T10:16:05.295Z,7.8
2023-01-03T10:20:04.020Z,7.8
2023-01-03T10:22:07.513Z,7.8
2023-01-03T10:24:09.122Z,8
2023-01-03T10:26:05.423Z,8.2
2023-01-03T10:28:04.035Z,8.6
2023-01-03T10:30:09.431Z,8.9
2023-01-03T10:32:02.737Z,9.4
2023-01-03T10:34:05.548Z,9.1
2023-01-03T10:38:06.637Z,8.6
2023-01-03T10:40:06.442Z,8.2
2023-01-03T10:44:04.809Z,7.8
2023-01-03T10:46:06.391Z,7.7
2023-01-03T10:50:02.654Z,7.7
2023-01-03T10:52:06.772Z,7.9
2023-01-03T10:54:08.211Z,8
2023-01-03T10:56:04.723Z,8.2
2023-01-03T10:58:02.644Z,8
2023-01-03T11:02:05.101Z,8
2023-01-03T11:04:02.710Z,7.8
2023-01-03T11:06:09.130Z,7.8
2023-01-03T11:08:02.673Z,7.8
2023-01-03T11:10:05.243Z,7.8
2023-01-03T11:12:09.481Z,7.7
2023-01-03T11:14:05.790Z,7.8
2023-01-03T11:16:03.999Z,7.6
2023-01-03T11:18:09.375Z,7.7
2023-01-03T11:20:06.382Z,7.7
2023-01-03T11:22:02.682Z,7.7
2023-01-03T11:24:09.147Z,7.6
2023-01-03T11:26:04.366Z,7.6
2023-01-03T11:28:02.651Z,7.5
2023-01-03T11:32:06.352Z,7.5
2023-01-03T11:34:02.665Z,7.5
2023-01-03T11:36:09.397Z,7.6
2023-01-03T11:38:05.666Z,7.7
2023-01-03T11:40:08.103Z,7.7
2023-01-03T11:44:06.313Z,7.6
2023-01-03T11:46:03.983Z,7.8
2023-01-03T11:50:05.983Z,7.8
2023-01-03T11:52:05.500Z,7.9
2023-01-03T11:56:06.333Z,7.7
2023-01-03T11:58:06.353Z,8
2023-01-03T12:02:06.853Z,8.1
2023-01-03T12:04:02.745Z,8.1
2023-01-03T12:08:03.975Z,8.1
2023-01-03T12:10:03.123Z,8.1
2023-01-03T12:12:08.700Z,8
2023-01-03T12:14:05.688Z,8
2023-01-03T12:18:09.708Z,8
2023-01-03T12:20:04.744Z,8
2023-01-03T12:22:07.426Z,8
2023-01-03T12:26:06.356Z,8.2
2023-01-03T12:28:04.901Z,8.5
2023-01-03T12:32:07.782Z,8.4
2023-01-03T12:34:08.300Z,8.9
2023-01-03T12:36:09.361Z,9.4
2023-01-03T12:38:06.706Z,9.4
2023-01-03T12:40:06.400Z,10.2
2023-01-03T12:44:02.678Z,10.8
2023-01-03T12:48:09.261Z,9.7
2023-01-03T12:50:05.826Z,9.1
2023-01-03T12:54:09.412Z,8.1
2023-01-03T12:56:05.834Z,8
2023-01-03T12:58:05.786Z,8
2023-01-03T13:02:05.579Z,8.1
2023-01-03T13:04:04.418Z,8
2023-01-03T13:06:05.132Z,8
2023-01-03T13:08:02.731Z,8
2023-01-03T13:10:03.980Z,7.9
2023-01-03T13:14:05.748Z,8.1
2023-01-03T13:16:02.748Z,8.3
2023-01-03T13:18:09.296Z,8.3
2023-01-03T13:20:03.421Z,8.2
2023-01-03T13:22:05.350Z,8
2023-01-03T13:24:09.531Z,8
2023-01-03T13:26:06.447Z,8
2023-01-03T13:28:06.667Z,7.9
2023-01-03T13:32:02.694Z,7.8
2023-01-03T13:34:02.701Z,7.8
2023-01-03T13:36:09.145Z,7.8
2023-01-03T13:38:06.635Z,7.9
2023-01-03T13:40:02.868Z,8
2023-01-03T13:44:03.412Z,8
2023-01-03T13:46:03.200Z,7.9
2023-01-03T13:50:02.704Z,7.9
2023-01-03T13:52:07.985Z,8
2023-01-03T13:54:09.105Z,8
2023-01-03T13:58:04.626Z,8
2023-01-03T14:00:09.378Z,8.2
2023-01-03T14:02:02.816Z,8.3
2023-01-03T14:04:06.393Z,8.3
2023-01-03T14:06:08.428Z,8.4
2023-01-03T14:08:03.422Z,8.5
2023-01-03T14:10:02.685Z,8.4
2023-01-03T14:12:09.371Z,8.5
2023-01-03T14:14:02.723Z,8.4
2023-01-03T14:16:05.323Z,8.2
2023-01-03T14:18:09.346Z,8
2023-01-03T14:20:03.706Z,7.8
2023-01-03T14:22:27.091Z,7.6
2023-01-03T14:26:07.813Z,7.3
2023-01-03T14:28:06.757Z,7.2
2023-01-03T14:32:05.295Z,7
2023-01-03T14:34:02.669Z,7
2023-01-03T14:38:06.933Z,6.8
2023-01-03T14:40:02.762Z,6.8
2023-01-03T14:42:09.427Z,6.9
2023-01-03T14:44:04.162Z,6.7
2023-01-03T14:46:02.678Z,6.8
2023-01-03T14:50:06.804Z,6.6
2023-01-03T14:52:06.241Z,6.6
2023-01-03T14:56:04.632Z,6.6
2023-01-03T14:58:06.366Z,6.5
2023-01-03T15:00:09.206Z,6.5
2023-01-03T15:02:08.581Z,6.5
2023-01-03T15:04:06.347Z,6.4
2023-01-03T15:06:09.650Z,6.3
2023-01-03T15:08:02.669Z,6.3
2023-01-03T15:10:06.340Z,6.2
2023-01-03T15:12:09.701Z,6.1
2023-01-03T15:14:06.708Z,6.2
2023-01-03T15:16:06.505Z,6.1
2023-01-03T15:18:09.867Z,6
2023-01-03T15:22:06.334Z,5.9
2023-01-03T15:24:09.340Z,5.8
2023-01-03T15:26:02.728Z,5.7
2023-01-03T15:28:07.920Z,5.8
2023-01-03T15:30:14.120Z,5.8
2023-01-03T15:32:04.157Z,5.7
2023-01-03T15:34:05.332Z,5.6
2023-01-03T15:38:03.233Z,5.6
2023-01-03T15:40:05.484Z,5.5
2023-01-03T15:44:02.834Z,5.3
2023-01-03T15:46:02.767Z,5.3
2023-01-03T15:50:03.941Z,5.3
2023-01-03T15:52:03.923Z,5.3
2023-01-03T15:54:09.201Z,5.1
2023-01-03T15:56:06.374Z,5.2
2023-01-03T15:58:05.217Z,5.2
2023-01-03T16:00:09.296Z,5.2
2023-01-03T16:02:02.859Z,5
2023-01-03T16:04:03.182Z,5
2023-01-03T16:06:09.210Z,5
2023-01-03T16:08:08.080Z,4.9
2023-01-03T16:10:05.930Z,4.8
2023-01-03T16:12:09.151Z,4.8
2023-01-03T16:14:03.604Z,4.7
2023-01-03T16:16:06.434Z,4.7
2023-01-03T16:20:03.956Z,4.6
2023-01-03T16:26:06.658Z,4.7
2023-01-03T16:28:12.367Z,4.7
2023-01-03T16:32:09.681Z,4.7
2023-01-03T16:34:06.351Z,4.8
2023-01-03T16:38:06.838Z,4.6
2023-01-03T16:40:02.729Z,4.7
2023-01-03T16:44:09.177Z,4.6
2023-01-03T16:46:03.178Z,4.5
2023-01-03T16:48:09.406Z,4.6
2023-01-03T16:50:08.122Z,4.5
2023-01-03T16:52:06.407Z,4.5
2023-01-03T16:54:09.374Z,4.6
2023-01-03T16:56:02.673Z,4.4
2023-01-03T16:58:02.674Z,4.4
2023-01-03T17:00:07.927Z,4.4
2023-01-03T17:02:04.275Z,4.4
2023-01-03T17:04:02.791Z,4.2
2023-01-03T17:10:03.904Z,4.4
2023-01-03T17:14:03.573Z,4.4
2023-01-03T17:16:05.282Z,4.4
2023-01-03T17:20:05.834Z,4.1
2023-01-03T17:22:02.714Z,4.1
2023-01-03T17:26:03.981Z,4
2023-01-03T17:28:02.729Z,3.9
2023-01-03T17:30:09.449Z,3.9
2023-01-03T17:32:02.731Z,3.8
2023-01-03T17:34:08.422Z,3.8
2023-01-03T17:36:09.417Z,3.8
2023-01-03T17:38:26.299Z,3.8
2023-01-03T17:40:07.191Z,4
2023-01-03T17:42:09.368Z,4
2023-01-03T17:44:04.885Z,4
2023-01-03T17:46:02.718Z,4
2023-01-03T17:50:03.504Z,4
2023-01-03T17:52:07.651Z,4
2023-01-03T17:56:02.699Z,3.9
2023-01-03T17:58:04.958Z,4
2023-01-03T18:00:09.285Z,4.1
2023-01-03T18:02:06.132Z,4.1
2023-01-03T18:04:02.826Z,4
2023-01-03T18:06:09.270Z,3.8
2023-01-03T18:08:06.370Z,3.8
2023-01-03T18:10:04.918Z,3.6
2023-01-03T18:12:09.319Z,3.6
2023-01-03T18:14:05.916Z,3.6
2023-01-03T18:16:08.258Z,3.6
2023-01-03T18:18:08.334Z,3.5
2023-01-03T18:20:02.759Z,3.4
2023-01-03T18:22:02.686Z,3.4
2023-01-03T18:26:02.740Z,3.5
2023-01-03T18:28:04.924Z,3.7
2023-01-03T18:30:09.396Z,3.7
2023-01-03T18:32:02.733Z,3.7
2023-01-03T18:34:02.728Z,3.8
2023-01-03T18:38:02.714Z,3.7
2023-01-03T18:40:06.028Z,3.7
2023-01-03T18:42:09.418Z,3.6
2023-01-03T18:44:02.723Z,3.7
2023-01-03T18:46:02.739Z,3.7
2023-01-03T18:48:09.464Z,3.7
2023-01-03T18:50:02.698Z,3.8
2023-01-03T18:52:03.155Z,3.7
2023-01-03T18:54:09.432Z,3.7
2023-01-03T18:56:02.724Z,3.8
2023-01-03T18:58:08.522Z,3.6
2023-01-03T19:00:09.265Z,3.8
2023-01-03T19:02:05.634Z,3.8
2023-01-03T19:04:02.799Z,3.8
2023-01-03T19:08:02.696Z,3.8
2023-01-03T19:10:05.653Z,3.8
2023-01-03T19:14:06.310Z,3.9
2023-01-03T19:16:06.051Z,3.8
2023-01-03T19:18:09.368Z,3.8
2023-01-03T19:20:02.812Z,3.7
2023-01-03T19:22:04.968Z,3.8
2023-01-03T19:24:09.637Z,3.7
2023-01-03T19:26:05.290Z,3.6
2023-01-03T19:28:02.711Z,3.6
2023-01-03T19:32:03.091Z,3.7
2023-01-03T19:34:05.956Z,3.8
2023-01-03T19:36:09.446Z,3.8
2023-01-03T19:38:03.108Z,3.8
2023-01-03T19:40:02.726Z,3.8
2023-01-03T19:42:08.921Z,3.8
2023-01-03T19:44:03.711Z,3.7
2023-01-03T19:46:03.867Z,3.8
2023-01-03T19:50:06.281Z,3.8
2023-01-03T19:52:07.209Z,3.9
2023-01-03T19:56:02.698Z,3.8
2023-01-03T19:58:07.027Z,3.6
2023-01-03T20:02:24.346Z,3.4
2023-01-03T20:04:02.897Z,3.5
2023-01-03T20:06:08.350Z,3.5
2023-01-03T20:08:09.406Z,3.6
2023-01-03T20:10:06.066Z,3.5
2023-01-03T20:12:09.345Z,3.5
2023-01-03T20:14:02.717Z,3.6
2023-01-03T20:16:02.774Z,3.6
2023-01-03T20:18:09.348Z,3.5
2023-01-03T20:20:02.699Z,3.4
2023-01-03T20:22:02.715Z,3.6
2023-01-03T20:26:02.758Z,3.7
2023-01-03T20:28:02.718Z,3.6
2023-01-03T20:30:09.350Z,3.6
2023-01-03T20:32:08.896Z,3.4
2023-01-03T20:34:02.738Z,3.6
2023-01-03T20:38:02.728Z,3.6
2023-01-03T20:40:06.336Z,3.5
2023-01-03T20:42:07.365Z,3.6
2023-01-03T20:44:07.841Z,3.5
2023-01-03T20:46:02.717Z,3.5
2023-01-03T20:48:09.429Z,3.5
2023-01-03T20:50:02.764Z,3.5
2023-01-03T20:56:02.756Z,3.3
2023-01-03T20:58:09.064Z,3.1
2023-01-03T21:02:04.637Z,3.1
2023-01-03T21:04:05.885Z,3
2023-01-03T21:06:09.392Z,3
2023-01-03T21:08:05.826Z,3.1
2023-01-03T21:10:03.994Z,3.2
2023-01-03T21:14:08.604Z,3
2023-01-03T21:16:02.827Z,2.9
2023-01-03T21:18:09.245Z,2.8
2023-01-03T21:20:02.763Z,2.8
2023-01-03T21:22:05.380Z,2.8
2023-01-03T21:26:05.869Z,2.8
2023-01-03T21:28:02.726Z,2.6
2023-01-03T21:30:09.045Z,2.4
2023-01-03T21:32:02.846Z,2.3
2023-01-03T21:34:02.714Z,2.4
2023-01-03T21:38:02.736Z,2.3
2023-01-03T21:40:02.711Z,2.3
2023-01-03T21:42:09.239Z,2.5
2023-01-03T21:44:04.012Z,2.6
2023-01-03T21:46:09.247Z,2.5
2023-01-03T21:50:05.982Z,2.6
2023-01-03T21:52:02.748Z,2.8
2023-01-03T21:56:07.622Z,2.8
2023-01-03T21:58:06.754Z,2.7
2023-01-03T22:00:09.344Z,2.7
2023-01-03T22:02:02.985Z,2.8
2023-01-03T22:04:02.803Z,2.7
2023-01-03T22:06:09.187Z,2.6
2023-01-03T22:08:08.836Z,2.7
2023-01-03T22:10:02.733Z,2.6
2023-01-03T22:14:05.023Z,2.6
2023-01-03T22:16:06.492Z,2.5
2023-01-03T22:18:09.346Z,2.5
2023-01-03T22:20:02.731Z,2.6
2023-01-03T22:22:02.707Z,2.4
2023-01-03T22:26:06.189Z,1.9
2023-01-03T22:28:02.710Z,1.9
2023-01-03T22:30:08.767Z,1.9
2023-01-03T22:32:06.238Z,2
2023-01-03T22:34:05.539Z,2
2023-01-03T22:38:02.770Z,2
2023-01-03T22:40:06.807Z,2
2023-01-03T22:44:09.363Z,2
2023-01-03T22:46:08.133Z,2
2023-01-03T22:50:02.836Z,1.8
2023-01-03T22:52:06.363Z,1.6
2023-01-03T22:54:07.931Z,1.7
2023-01-03T22:56:07.337Z,1.7
2023-01-03T22:58:06.932Z,1.7
2023-01-03T23:00:09.553Z,1.6
2023-01-03T23:02:05.151Z,1.6
2023-01-03T23:04:02.749Z,1.6
2023-01-03T23:08:02.772Z,1.7
2023-01-03T23:10:06.276Z,1.8
2023-01-03T23:12:09.327Z,1.8
2023-01-03T23:14:02.763Z,1.9
2023-01-03T23:16:02.749Z,1.9
2023-01-03T23:20:06.296Z,2.1
2023-01-03T23:22:06.780Z,2.3
2023-01-03T23:26:07.660Z,2.2
2023-01-03T23:28:05.957Z,2.3
2023-01-03T23:32:02.715Z,2.4
2023-01-03T23:34:05.975Z,2.5
2023-01-03T23:36:09.351Z,2.5
2023-01-03T23:38:02.715Z,2.5
2023-01-03T23:40:02.712Z,2.4
2023-01-03T23:44:02.725Z,2.6
2023-01-03T23:46:02.766Z,2.5
2023-01-03T23:50:02.718Z,2.4
2023-01-03T23:52:02.717Z,2.6
2023-01-03T23:56:05.338Z,2.4
